Aérodrome :
LOGIN :

S'inscrire | Disclaimer

   EN    FR    IT 

 










Légende :    VFR   VFR Marginal   IFR   IFR Intensif   IFR Très Intensif
Visi : 
Plafond : 
>= 8 km
>= 3000ft
5 à 8 km
1000 à 3000 ft
1500m à 5 km
500 à 1000 ft
800 à 1500m
200 à 500 ft
< 800m
< 200 ft
Symboles :   Orages  Brouillard  Fortes neiges  Fortes précipitations  Vent > 20 kt
SIGMETs :   Divers  Orages  Givrage  Turbulence  Onde Orograph.  Cendres Volcan.







- Altitude de l'aérodrome : 408 ft
- Code IATA : FKB


EDSB - Karlsruhe Baden Baden

DERNIER METAR :
  • 211250Z 20005KT 110V220 9999 FEW024 SCT047 21/18 Q1013

METARs EXPIRÉS :
  • 211220Z VRB03KT 9000 -SHRA SCT031 BKN059 OVC068 20/18 Q1013
  • 211150Z 26004KT 220V010 9000 -SHRA OVC026 20/18 Q1013
  • 211120Z 25003KT 9000 -SHRA SCT025 BKN030CB OVC049 19/18 Q1013 RESHRA
  • 211050Z 26006KT 220V320 8000 SHRA FEW021 BKN025 OVC029CB 18/18 Q1013
  • 211020Z 28005KT 250V010 9999 VCSH FEW023 OVC026CB 21/17 Q1013

TAF TAF EDSB
Valide du 21 à 12h jusqu'au 22 à 12h UTC


211100Z 2112/2212 22006KT 9999 SCT040
PROB30
TEMPO 2112/2120 27015G25KT 4000 TSRA SCT030CB
Pas de NOTAMs connus pour ce terrain.



MET'MAP, la Météo Aéronautique d'un coup d'oeil ! - Copyright ORBIFLY Décembre 2007 - Disclaimer

ORBIFLY MET'MAP TEAM :

Programmation & Développement : Alexandra Zaïnal
Conception & Développement : Baudouin d'Aumeries
Co-Programmation & Développement : Marc-Olivier Méhu
Soutien technique & logistique : Manuel Goepfert

Contact : metmap@orbifly.com




SOURCES & CREDITS :

   NOAA